createdAt,value
2018-10-11T00:00:22.168Z,17.6
2018-10-11T00:01:11.929Z,17.6
2018-10-11T00:02:02.548Z,17.5
2018-10-11T00:02:52.337Z,17.5
2018-10-11T00:03:42.133Z,17.6
2018-10-11T00:04:33.358Z,17.5
2018-10-11T00:05:22.803Z,17.5
2018-10-11T00:06:12.882Z,17.5
2018-10-11T00:07:03.200Z,17.5
2018-10-11T00:25:23.747Z,17.4
2018-10-11T00:26:13.564Z,17.5
2018-10-11T00:27:03.883Z,17.5
2018-10-11T00:27:52.922Z,17.5
2018-10-11T00:28:57.627Z,17.5
2018-10-11T00:29:32.714Z,17.4
2018-10-11T00:30:23.838Z,17.5
2018-10-11T00:31:14.243Z,17.5
2018-10-11T00:32:03.162Z,17.5
2018-10-11T00:32:53.510Z,17.5
2018-10-11T00:33:44.088Z,17.5
2018-10-11T00:34:34.166Z,17.4
2018-10-11T00:35:23.961Z,17.5
2018-10-11T00:36:14.034Z,17.5
2018-10-11T00:37:04.369Z,17.4
2018-10-11T00:37:54.697Z,17.4
2018-10-11T00:38:44.764Z,17.4
2018-10-11T00:39:34.291Z,17.4
2018-10-11T00:40:24.944Z,17.4
2018-10-11T00:41:14.989Z,17.4
2018-10-11T00:42:05.096Z,17.4
2018-10-11T00:42:54.466Z,17.4
2018-10-11T00:43:44.272Z,17.4
2018-10-11T00:44:34.626Z,17.4
2018-10-11T00:45:25.035Z,17.4
2018-10-11T00:46:14.492Z,17.4
2018-10-11T00:47:05.411Z,17.4
2018-10-11T00:47:54.051Z,17.4
2018-10-11T00:48:45.525Z,17.4
2018-10-11T00:49:37.425Z,17.4
2018-10-11T00:50:25.051Z,17.4
2018-10-11T00:51:15.448Z,17.4
2018-10-11T00:52:05.181Z,17.4
2018-10-11T00:52:55.003Z,17.4
2018-10-11T00:53:45.588Z,17.4
2018-10-11T00:54:35.662Z,17.4
2018-10-11T00:55:25.714Z,17.4
2018-10-11T00:56:15.832Z,17.4
2018-10-11T00:57:05.547Z,17.4
2018-10-11T00:57:54.787Z,17.4
2018-10-11T00:58:44.534Z,17.4
2018-10-11T00:59:35.194Z,17.4
2018-10-11T01:00:26.116Z,17.4
2018-10-11T01:01:15.572Z,17.4
2018-10-11T01:02:05.399Z,17.4
2018-10-11T01:02:56.571Z,17.4
2018-10-11T01:03:46.581Z,17.4
2018-10-11T01:04:36.082Z,17.4
2018-10-11T01:05:26.699Z,17.4
2018-10-11T01:06:15.719Z,17.4
2018-10-11T01:07:06.313Z,17.4
2018-10-11T01:07:56.069Z,17.4
2018-10-11T01:08:46.426Z,17.4
2018-10-11T01:09:37.889Z,17.4
2018-10-11T01:10:26.829Z,17.4
2018-10-11T01:11:46.151Z,17.4
2018-10-11T01:12:20.738Z,17.4
2018-10-11T01:12:56.408Z,17.4
2018-10-11T01:13:47.073Z,17.4
2018-10-11T01:14:36.312Z,17.4
2018-10-11T01:15:27.476Z,17.4
2018-10-11T01:16:16.460Z,17.4
2018-10-11T01:17:06.766Z,17.4
2018-10-11T01:17:57.139Z,17.4
2018-10-11T01:18:47.426Z,17.4
2018-10-11T01:19:36.916Z,17.4
2018-10-11T01:20:26.398Z,17.4
2018-10-11T01:21:17.013Z,17.4
2018-10-11T01:22:07.983Z,17.4
2018-10-11T01:22:58.058Z,17.3
2018-10-11T01:23:48.659Z,17.4
2018-10-11T01:24:37.628Z,17.4
2018-10-11T01:25:27.655Z,17.4
2018-10-11T01:26:18.081Z,17.4
2018-10-11T01:27:08.298Z,17.3
2018-10-11T01:27:56.695Z,17.3
2018-10-11T01:28:47.843Z,17.3
2018-10-11T01:29:39.830Z,17.3
2018-10-11T01:30:27.801Z,17.3
2018-10-11T01:31:17.520Z,17.3
2018-10-11T01:32:06.807Z,17.3
2018-10-11T01:32:58.525Z,17.4
2018-10-11T01:33:48.276Z,17.3
2018-10-11T01:34:37.765Z,17.3
2018-10-11T01:35:28.958Z,17.3
2018-10-11T01:36:18.743Z,17.3
2018-10-11T01:37:09.353Z,17.3
2018-10-11T01:37:59.168Z,17.3
2018-10-11T01:38:51.441Z,17.3
2018-10-11T01:39:38.992Z,17.3
2018-10-11T01:40:29.336Z,17.3
2018-10-11T01:41:19.426Z,17.3
2018-10-11T01:42:09.467Z,17.3
2018-10-11T01:42:59.287Z,17.3
2018-10-11T01:43:48.461Z,17.3
2018-10-11T01:44:39.368Z,17.3
2018-10-11T01:45:29.697Z,17.3
2018-10-11T01:46:18.916Z,17.3
2018-10-11T01:47:08.368Z,17.3
2018-10-11T01:48:00.119Z,17.3
2018-10-11T01:48:49.119Z,17.3
2018-10-11T01:49:39.435Z,17.3
2018-10-11T01:50:30.083Z,17.3
2018-10-11T01:51:19.271Z,17.3
2018-10-11T01:52:09.606Z,17.3
2018-10-11T01:53:00.519Z,17.3
2018-10-11T01:53:50.308Z,17.3
2018-10-11T01:54:39.095Z,17.3
2018-10-11T01:55:29.112Z,17.3
2018-10-11T01:56:18.594Z,17.3
2018-10-11T01:57:09.798Z,17.3
2018-10-11T01:57:59.872Z,17.3
2018-10-11T01:58:50.961Z,17.3
2018-10-11T01:59:40.275Z,17.3
2018-10-11T02:00:30.071Z,17.3
2018-10-11T02:01:20.099Z,17.3
2018-10-11T02:02:10.758Z,17.3
2018-10-11T02:03:00.171Z,17.3
2018-10-11T02:03:50.811Z,17.3
2018-10-11T02:04:38.948Z,17.3
2018-10-11T02:05:30.976Z,17.3
2018-10-11T02:06:20.736Z,17.3
2018-10-11T02:07:10.313Z,17.3
2018-10-11T02:08:00.890Z,17.3
2018-10-11T02:08:50.892Z,17.3
2018-10-11T02:09:42.191Z,17.3
2018-10-11T02:10:31.341Z,17.3
2018-10-11T02:11:21.095Z,17.3
2018-10-11T02:12:10.950Z,17.3
2018-10-11T02:13:01.533Z,17.3
2018-10-11T02:13:50.425Z,17.3
2018-10-11T02:14:41.370Z,17.2
2018-10-11T02:15:30.865Z,17.2
2018-10-11T02:16:20.929Z,17.2
2018-10-11T02:17:11.214Z,17.2
2018-10-11T02:18:00.830Z,17.2
2018-10-11T02:18:51.618Z,17.2
2018-10-11T02:19:40.878Z,17.2
2018-10-11T02:20:30.104Z,17.2
2018-10-11T02:21:21.760Z,17.2
2018-10-11T02:22:10.765Z,17.2
2018-10-11T02:23:02.218Z,17.2
2018-10-11T02:23:52.595Z,17.2
2018-10-11T02:24:42.026Z,17.2
2018-10-11T02:25:32.339Z,17.2
2018-10-11T02:26:21.080Z,17.2
2018-10-11T02:27:11.670Z,17.2
2018-10-11T02:28:02.567Z,17.2
2018-10-11T02:28:52.547Z,17.2
2018-10-11T02:29:42.922Z,17.2
2018-10-11T02:30:33.342Z,17.2
2018-10-11T02:31:21.702Z,17.2
2018-10-11T02:32:15.407Z,17.2
2018-10-11T02:33:02.065Z,17.2
2018-10-11T02:33:52.735Z,17.2
2018-10-11T02:34:42.559Z,17.2
2018-10-11T02:35:32.814Z,17.2
2018-10-11T02:36:21.772Z,17.2
2018-10-11T02:37:12.652Z,17.2
2018-10-11T02:38:03.299Z,17.1
2018-10-11T02:38:53.730Z,17.2
2018-10-11T02:39:43.493Z,17.2
2018-10-11T02:40:33.164Z,17.2
2018-10-11T02:41:23.251Z,17.1
2018-10-11T02:42:12.186Z,17.1
2018-10-11T02:43:03.409Z,17.1
2018-10-11T02:43:52.621Z,17.1
2018-10-11T02:44:42.934Z,17.1
2018-10-11T02:45:33.608Z,17.1
2018-10-11T02:46:23.361Z,17.1
2018-10-11T02:47:13.688Z,17.1
2018-10-11T02:48:03.493Z,17.2
2018-10-11T02:48:53.485Z,17.1
2018-10-11T02:49:44.109Z,17.1
2018-10-11T02:50:34.224Z,17.1
2018-10-11T02:51:23.689Z,17.1
2018-10-11T02:52:14.927Z,17.1
2018-10-11T02:53:04.705Z,17.1
2018-10-11T02:53:53.611Z,17.1
2018-10-11T02:54:44.023Z,17.1
2018-10-11T02:55:34.951Z,17.1
2018-10-11T02:56:24.416Z,17.1
2018-10-11T02:57:14.426Z,17.1
2018-10-11T02:58:05.089Z,17.1
2018-10-11T02:58:55.175Z,17.1
2018-10-11T02:59:45.748Z,17.1
2018-10-11T03:00:35.800Z,17.1
2018-10-11T03:01:25.378Z,17.1
2018-10-11T03:02:14.663Z,17.1
2018-10-11T03:03:04.258Z,17.1
2018-10-11T03:03:54.353Z,17.1
2018-10-11T03:04:43.537Z,17.1
2018-10-11T03:05:34.755Z,17.1
2018-10-11T03:06:25.725Z,17.1
2018-10-11T03:07:14.919Z,17.1
2018-10-11T03:08:04.924Z,17.1
2018-10-11T03:08:55.280Z,17.1
2018-10-11T03:09:44.489Z,17.1
2018-10-11T03:10:35.452Z,17.1
2018-10-11T03:11:26.235Z,17.1
2018-10-11T03:12:16.125Z,17.1
2018-10-11T03:13:05.641Z,17.1
2018-10-11T03:13:55.405Z,17.1
2018-10-11T03:14:45.967Z,17.1
2018-10-11T03:15:36.217Z,17.1
2018-10-11T03:16:25.809Z,17.1
2018-10-11T03:17:16.436Z,17.1
2018-10-11T03:18:05.394Z,17.1
2018-10-11T03:18:55.698Z,17.1
2018-10-11T03:19:46.062Z,17.1
2018-10-11T03:20:36.714Z,17.1
2018-10-11T03:21:25.930Z,17.1
2018-10-11T03:22:16.854Z,17.1
2018-10-11T03:23:06.601Z,17.1
2018-10-11T03:23:56.952Z,17.1
2018-10-11T03:24:47.565Z,17.1
2018-10-11T03:25:37.357Z,17.1
2018-10-11T03:26:25.724Z,17.1
2018-10-11T03:28:06.972Z,17.1
2018-10-11T03:28:57.350Z,17.1
2018-10-11T03:32:17.722Z,17.1
2018-10-11T03:33:07.348Z,17.1
2018-10-11T03:35:36.734Z,17.1
2018-10-11T03:53:58.334Z,16.9
2018-10-11T03:54:48.375Z,16.9
2018-10-11T03:55:39.181Z,16.9
2018-10-11T03:56:29.347Z,16.9
2018-10-11T03:57:20.064Z,16.9
2018-10-11T03:58:08.937Z,16.9
2018-10-11T03:58:58.692Z,16.9
2018-10-11T03:59:49.670Z,16.9
2018-10-11T04:00:40.218Z,16.9
2018-10-11T04:01:29.747Z,16.9
2018-10-11T04:02:19.500Z,16.9
2018-10-11T04:03:08.982Z,16.9
2018-10-11T04:03:59.642Z,16.9
2018-10-11T04:04:48.268Z,16.9
2018-10-11T04:05:40.295Z,16.9
2018-10-11T04:06:29.802Z,16.9
2018-10-11T04:07:19.596Z,16.9
2018-10-11T04:08:07.970Z,16.9
2018-10-11T04:08:59.969Z,16.9
2018-10-11T04:09:49.484Z,16.9
2018-10-11T04:10:39.844Z,16.9
2018-10-11T04:11:30.684Z,16.8
2018-10-11T04:12:20.502Z,16.8
2018-10-11T04:13:10.572Z,16.8
2018-10-11T04:13:59.759Z,16.8
2018-10-11T04:14:49.447Z,16.8
2018-10-11T04:15:41.348Z,16.9
2018-10-11T04:16:30.053Z,16.8
2018-10-11T04:17:20.357Z,16.8
2018-10-11T04:18:09.915Z,16.8
2018-10-11T04:18:59.396Z,16.8
2018-10-11T04:19:50.301Z,16.9
2018-10-11T04:20:40.394Z,16.8
2018-10-11T04:21:30.115Z,16.8
2018-10-11T04:22:20.986Z,16.8
2018-10-11T04:23:09.881Z,16.8
2018-10-11T04:24:01.076Z,16.8
2018-10-11T04:24:49.745Z,16.8
2018-10-11T04:25:40.615Z,16.8
2018-10-11T04:26:30.520Z,16.8
2018-10-11T04:27:21.920Z,16.8
2018-10-11T04:28:11.663Z,16.8
2018-10-11T04:29:02.028Z,16.8
2018-10-11T04:29:51.597Z,16.8
2018-10-11T04:30:42.190Z,16.8
2018-10-11T04:31:31.954Z,16.8
2018-10-11T04:32:22.042Z,16.8
2018-10-11T04:33:10.746Z,16.8
2018-10-11T04:34:01.562Z,16.8
2018-10-11T04:34:51.053Z,16.8
2018-10-11T04:35:40.848Z,16.8
2018-10-11T04:36:32.297Z,16.8
2018-10-11T04:54:23.761Z,16.8
2018-10-11T04:55:13.623Z,16.8
2018-10-11T04:56:03.603Z,16.8
2018-10-11T04:56:53.435Z,16.8
2018-10-11T04:57:43.721Z,16.8
2018-10-11T04:58:33.800Z,16.8
2018-10-11T04:59:24.406Z,16.8
2018-10-11T05:00:13.933Z,16.8
2018-10-11T05:01:04.033Z,16.8
2018-10-11T05:01:53.760Z,16.8
2018-10-11T05:02:44.103Z,16.8
2018-10-11T05:03:33.607Z,16.8
2018-10-11T05:04:25.056Z,16.8
2018-10-11T05:05:13.940Z,16.8
2018-10-11T05:06:03.825Z,16.8
2018-10-11T05:06:54.687Z,16.8
2018-10-11T05:07:44.145Z,16.8
2018-10-11T05:08:34.242Z,16.8
2018-10-11T05:09:24.272Z,16.8
2018-10-11T05:10:14.935Z,16.8
2018-10-11T05:11:04.469Z,16.8
2018-10-11T05:11:54.489Z,16.8
2018-10-11T05:12:44.237Z,16.7
2018-10-11T05:13:35.198Z,16.8
2018-10-11T05:14:23.807Z,16.7
2018-10-11T05:15:14.809Z,16.7
2018-10-11T05:16:05.112Z,16.7
2018-10-11T05:16:54.282Z,16.7
2018-10-11T05:17:44.664Z,16.7
2018-10-11T05:18:35.024Z,16.7
2018-10-11T05:19:25.640Z,16.7
2018-10-11T05:20:14.534Z,16.7
2018-10-11T05:21:05.174Z,16.7
2018-10-11T05:21:55.541Z,16.7
2018-10-11T05:22:45.304Z,16.7
2018-10-11T05:23:35.349Z,16.7
2018-10-11T05:24:25.615Z,16.7
2018-10-11T05:25:15.476Z,16.7
2018-10-11T05:26:06.063Z,16.7
2018-10-11T05:26:55.746Z,16.7
2018-10-11T05:27:45.503Z,16.7
2018-10-11T05:28:35.533Z,16.7
2018-10-11T05:29:25.784Z,16.7
2018-10-11T05:30:16.122Z,16.7
2018-10-11T05:31:05.579Z,16.7
2018-10-11T05:31:56.525Z,16.7
2018-10-11T05:32:46.067Z,16.7
2018-10-11T05:33:36.058Z,16.7
2018-10-11T05:34:25.563Z,16.7
2018-10-11T05:35:16.416Z,16.7
2018-10-11T05:36:05.378Z,16.7
2018-10-11T05:36:56.446Z,16.7
2018-10-11T05:37:46.850Z,16.7
2018-10-11T05:38:36.991Z,16.7
2018-10-11T05:39:26.198Z,16.7
2018-10-11T05:40:16.863Z,16.6
2018-10-11T05:41:06.327Z,16.6
2018-10-11T05:41:56.115Z,16.6
2018-10-11T05:42:46.732Z,16.6
2018-10-11T05:43:35.928Z,16.7
2018-10-11T05:44:28.191Z,16.7
2018-10-11T05:45:17.457Z,16.6
2018-10-11T05:46:06.991Z,16.6
2018-10-11T05:46:56.835Z,16.6
2018-10-11T05:47:47.133Z,16.7
2018-10-11T05:48:37.168Z,16.6
2018-10-11T05:49:27.804Z,16.7
2018-10-11T05:50:18.143Z,16.6
2018-10-11T05:51:07.682Z,16.7
2018-10-11T05:51:57.178Z,16.7
2018-10-11T05:52:47.228Z,16.7
2018-10-11T05:53:37.802Z,16.6
2018-10-11T05:54:27.880Z,16.6
2018-10-11T05:55:18.237Z,16.6
2018-10-11T05:56:08.272Z,16.6
2018-10-11T05:56:59.065Z,16.6
2018-10-11T05:57:47.900Z,16.6
2018-10-11T05:58:38.204Z,16.6
2018-10-11T05:59:27.795Z,16.6
2018-10-11T06:00:17.582Z,16.6
2018-10-11T06:01:08.380Z,16.6
2018-10-11T06:01:58.735Z,16.6
2018-10-11T06:02:48.509Z,16.6
2018-10-11T06:03:38.556Z,16.7
2018-10-11T06:04:30.090Z,16.7
2018-10-11T06:05:18.117Z,16.6
2018-10-11T06:06:08.194Z,16.6
2018-10-11T06:06:59.417Z,16.6
2018-10-11T06:07:48.588Z,16.6
2018-10-11T06:08:38.496Z,16.6
2018-10-11T06:09:28.149Z,16.6
2018-10-11T06:10:18.507Z,16.6
2018-10-11T06:11:08.785Z,16.6
2018-10-11T06:12:00.408Z,16.6
2018-10-11T06:12:49.132Z,16.6
2018-10-11T06:13:39.075Z,16.6
2018-10-11T06:14:29.279Z,16.6
2018-10-11T06:15:19.128Z,16.6
2018-10-11T06:16:09.770Z,16.6
2018-10-11T06:16:59.044Z,16.6
2018-10-11T06:17:50.403Z,16.6
2018-10-11T06:18:39.706Z,16.6
2018-10-11T06:19:29.732Z,16.6
2018-10-11T06:20:20.372Z,16.6
2018-10-11T06:21:09.939Z,16.6
2018-10-11T06:22:00.189Z,16.7
2018-10-11T06:22:49.974Z,16.6
2018-10-11T06:23:39.467Z,16.6
2018-10-11T06:24:29.547Z,16.6
2018-10-11T06:25:19.338Z,16.6
2018-10-11T06:26:09.937Z,16.6
2018-10-11T06:27:00.572Z,16.6
2018-10-11T06:27:50.422Z,16.6
2018-10-11T06:28:40.511Z,16.6
2018-10-11T06:29:30.192Z,16.7
2018-10-11T06:30:21.921Z,16.7
2018-10-11T06:31:11.097Z,16.7
2018-10-11T06:32:00.342Z,16.6
2018-10-11T06:32:51.315Z,16.7
2018-10-11T06:33:40.772Z,16.6
2018-10-11T06:34:31.167Z,16.7
2018-10-11T06:35:20.343Z,16.6
2018-10-11T06:36:13.754Z,16.7
2018-10-11T06:37:00.745Z,16.7
2018-10-11T06:37:51.144Z,16.6
2018-10-11T06:38:41.219Z,16.6
2018-10-11T06:39:31.564Z,16.7
2018-10-11T06:40:20.731Z,16.7
2018-10-11T06:41:10.756Z,16.7
2018-10-11T06:42:02.645Z,16.6
2018-10-11T06:42:53.715Z,16.6
2018-10-11T06:43:41.232Z,16.7
2018-10-11T06:44:31.903Z,16.6
2018-10-11T06:45:21.705Z,16.7
2018-10-11T06:46:11.421Z,16.7
2018-10-11T06:47:02.049Z,16.6
2018-10-11T06:47:51.533Z,16.6
2018-10-11T06:48:41.858Z,16.7
2018-10-11T06:49:31.946Z,16.7
2018-10-11T06:50:23.424Z,16.7
2018-10-11T06:51:12.078Z,16.7
2018-10-11T06:52:01.803Z,16.7
2018-10-11T06:52:51.851Z,16.6
2018-10-11T06:53:41.643Z,16.7
2018-10-11T06:54:32.065Z,16.7
2018-10-11T06:55:22.362Z,16.7
2018-10-11T06:56:12.566Z,16.7
2018-10-11T06:57:02.480Z,16.7
2018-10-11T06:57:51.987Z,16.7
2018-10-11T06:58:43.250Z,16.7
2018-10-11T06:59:32.647Z,16.7
2018-10-11T07:00:22.543Z,16.7
2018-10-11T07:01:12.520Z,16.7
2018-10-11T07:02:04.208Z,16.7
2018-10-11T07:02:52.056Z,16.7
2018-10-11T07:03:43.080Z,16.7
2018-10-11T07:04:32.750Z,16.7
2018-10-11T07:05:23.139Z,16.7
2018-10-11T07:06:13.413Z,16.7
2018-10-11T07:07:02.661Z,16.7
2018-10-11T07:07:52.684Z,16.7
2018-10-11T07:08:43.029Z,16.7
2018-10-11T07:09:33.660Z,16.7
2018-10-11T07:10:23.450Z,16.7
2018-10-11T07:11:13.264Z,16.7
2018-10-11T07:12:03.313Z,16.7
2018-10-11T07:12:53.639Z,16.7
2018-10-11T07:13:43.981Z,16.7
2018-10-11T07:14:33.844Z,16.7
2018-10-11T07:15:23.307Z,16.7
2018-10-11T07:16:14.132Z,16.7
2018-10-11T07:17:04.532Z,16.7
2018-10-11T07:17:54.071Z,16.7
2018-10-11T07:18:43.779Z,16.7
2018-10-11T07:19:35.738Z,16.7
2018-10-11T07:20:23.139Z,16.7
2018-10-11T07:21:13.924Z,16.7
2018-10-11T07:22:03.484Z,16.7
2018-10-11T07:22:53.821Z,16.7
2018-10-11T07:23:44.145Z,16.7
2018-10-11T07:24:34.842Z,16.7
2018-10-11T07:25:23.746Z,16.7
2018-10-11T07:26:13.874Z,16.7
2018-10-11T07:27:05.254Z,16.7
2018-10-11T07:27:54.729Z,16.7
2018-10-11T07:28:44.241Z,16.8
2018-10-11T07:29:34.865Z,16.7
2018-10-11T07:30:23.806Z,16.7
2018-10-11T07:31:14.712Z,16.7
2018-10-11T07:32:05.354Z,16.8
2018-10-11T07:32:54.801Z,16.7
2018-10-11T07:33:43.751Z,16.7
2018-10-11T07:34:36.669Z,16.7
2018-10-11T07:35:30.226Z,16.7
2018-10-11T07:36:15.113Z,16.7
2018-10-11T07:37:05.726Z,16.8
2018-10-11T07:37:55.491Z,16.8
2018-10-11T07:38:44.988Z,16.8
2018-10-11T07:39:34.724Z,16.8
2018-10-11T07:40:27.278Z,16.8
2018-10-11T07:41:16.521Z,16.7
2018-10-11T07:42:05.822Z,16.8
2018-10-11T07:42:55.831Z,16.7
2018-10-11T07:43:45.058Z,16.8
2018-10-11T07:44:35.996Z,16.8
2018-10-11T07:45:26.061Z,16.8
2018-10-11T07:46:15.821Z,16.8
2018-10-11T07:47:06.894Z,16.8
2018-10-11T07:47:55.900Z,16.8
2018-10-11T07:48:45.993Z,16.8
2018-10-11T07:49:35.760Z,16.8
2018-10-11T07:50:26.123Z,16.8
2018-10-11T07:51:16.467Z,16.8
2018-10-11T07:52:05.925Z,16.8
2018-10-11T07:52:56.987Z,16.8
2018-10-11T07:53:45.457Z,16.8
2018-10-11T07:54:37.232Z,16.8
2018-10-11T07:55:27.070Z,16.8
2018-10-11T07:56:16.972Z,16.8
2018-10-11T07:57:06.356Z,16.8
2018-10-11T07:57:57.282Z,16.8
2018-10-11T07:58:46.459Z,16.8
2018-10-11T07:59:37.097Z,16.8
2018-10-11T08:00:27.180Z,16.8
2018-10-11T08:01:18.077Z,16.8
2018-10-11T08:02:07.305Z,16.8
2018-10-11T08:02:56.319Z,16.8
2018-10-11T08:03:47.492Z,16.8
2018-10-11T08:04:37.750Z,16.8
2018-10-11T08:05:27.505Z,16.8
2018-10-11T08:06:17.865Z,16.8
2018-10-11T08:07:08.797Z,16.8
2018-10-11T08:07:57.814Z,16.8
2018-10-11T08:08:47.020Z,16.8
2018-10-11T08:09:37.899Z,16.8
2018-10-11T08:10:28.994Z,16.8
2018-10-11T08:11:20.967Z,16.8
2018-10-11T08:12:11.460Z,16.8
2018-10-11T08:12:58.648Z,16.8
2018-10-11T08:13:48.900Z,16.8
2018-10-11T08:14:37.679Z,16.8
2018-10-11T08:15:27.926Z,16.8
2018-10-11T08:16:21.386Z,16.8
2018-10-11T08:17:18.143Z,16.8
2018-10-11T08:18:05.865Z,16.8
2018-10-11T08:18:50.465Z,16.8
2018-10-11T08:19:42.955Z,16.8
2018-10-11T08:20:30.438Z,16.8
2018-10-11T08:21:18.162Z,16.8
2018-10-11T08:22:08.857Z,16.8
2018-10-11T08:22:58.538Z,16.8
2018-10-11T08:23:48.431Z,16.8
2018-10-11T08:24:40.842Z,16.8
2018-10-11T08:25:37.460Z,16.8
2018-10-11T08:26:28.680Z,16.8
2018-10-11T08:27:09.243Z,16.8
2018-10-11T08:27:56.203Z,16.8
2018-10-11T08:28:48.086Z,16.8
2018-10-11T08:29:38.810Z,16.8
2018-10-11T08:30:29.408Z,16.8
2018-10-11T08:31:19.433Z,16.8
2018-10-11T08:32:10.215Z,16.8
2018-10-11T08:32:59.514Z,16.8
2018-10-11T08:33:49.500Z,16.8
2018-10-11T08:34:39.195Z,16.8
2018-10-11T08:35:28.600Z,16.8
2018-10-11T08:36:19.895Z,16.8
2018-10-11T08:37:09.109Z,16.9
2018-10-11T08:38:05.545Z,16.8
2018-10-11T08:38:50.813Z,16.9
2018-10-11T08:39:39.525Z,16.9
2018-10-11T08:40:30.180Z,16.9
2018-10-11T08:41:19.671Z,16.9
2018-10-11T08:42:09.650Z,16.9
2018-10-11T08:42:59.497Z,16.9
2018-10-11T08:43:51.607Z,16.9
2018-10-11T08:44:39.891Z,16.9
2018-10-11T08:45:31.142Z,16.9
2018-10-11T08:46:20.077Z,16.9
2018-10-11T08:47:10.558Z,16.9
2018-10-11T08:47:59.797Z,16.9
2018-10-11T08:48:51.026Z,16.9
2018-10-11T08:49:39.946Z,16.9
2018-10-11T08:50:31.988Z,16.9
2018-10-11T08:51:20.632Z,16.9
2018-10-11T08:52:10.182Z,16.9
2018-10-11T09:08:57.869Z,16.9
2018-10-11T09:09:56.354Z,16.9
2018-10-11T09:10:47.588Z,16.9
2018-10-11T09:11:27.571Z,16.9
2018-10-11T09:12:18.343Z,16.9
2018-10-11T09:13:07.598Z,16.9
2018-10-11T09:13:57.935Z,16.9
2018-10-11T09:14:48.753Z,16.9
2018-10-11T09:15:36.921Z,16.9
2018-10-11T09:16:28.613Z,16.9
2018-10-11T09:17:19.668Z,16.9
2018-10-11T09:18:09.225Z,16.9
2018-10-11T09:18:59.025Z,16.9
2018-10-11T09:19:48.360Z,16.9
2018-10-11T09:20:37.820Z,16.9
2018-10-11T09:21:29.111Z,16.9
2018-10-11T09:22:17.954Z,16.9
2018-10-11T09:23:08.059Z,16.9
2018-10-11T09:23:58.963Z,16.9
2018-10-11T09:24:48.958Z,16.9
2018-10-11T09:25:39.538Z,16.9
2018-10-11T09:26:28.780Z,16.9
2018-10-11T09:27:19.412Z,16.9
2018-10-11T09:28:08.168Z,16.9
2018-10-11T09:28:59.301Z,16.9
2018-10-11T09:29:49.817Z,16.9
2018-10-11T09:30:39.684Z,16.9
2018-10-11T09:31:30.638Z,16.9
2018-10-11T09:32:19.037Z,16.9
2018-10-11T09:33:10.115Z,16.9
2018-10-11T09:33:59.713Z,16.9
2018-10-11T09:34:49.107Z,16.9
2018-10-11T09:35:39.748Z,16.9
2018-10-11T09:36:29.966Z,16.9
2018-10-11T09:37:20.285Z,16.9
2018-10-11T09:38:10.796Z,16.9
2018-10-11T09:39:00.333Z,16.9
2018-10-11T09:39:50.176Z,16.9
2018-10-11T09:40:39.701Z,16.9
2018-10-11T09:42:20.877Z,16.9
2018-10-11T09:43:11.975Z,16.9
2018-10-11T09:44:51.025Z,16.9
2018-10-11T10:07:21.712Z,17.1
2018-10-11T10:11:32.574Z,17.1
2018-10-11T10:12:22.791Z,17.1
2018-10-11T10:14:52.187Z,17.1
2018-10-11T10:15:43.270Z,17.1
2018-10-11T10:16:32.337Z,17.1
2018-10-11T10:17:22.642Z,17.1
2018-10-11T10:18:13.790Z,17.1
2018-10-11T10:19:02.644Z,17.1
2018-10-11T10:19:52.529Z,17.1
2018-10-11T10:20:43.209Z,17.1
2018-10-11T10:21:35.256Z,17.1
2018-10-11T10:22:23.486Z,17.1
2018-10-11T10:23:12.667Z,17.1
2018-10-11T10:24:02.931Z,17.1
2018-10-11T10:24:53.193Z,17.1
2018-10-11T10:25:44.308Z,17.1
2018-10-11T10:26:34.475Z,17.1
2018-10-11T10:27:25.200Z,17.1
2018-10-11T10:28:13.466Z,17.1
2018-10-11T10:29:04.045Z,17.1
2018-10-11T10:29:53.659Z,17.1
2018-10-11T10:30:44.063Z,17.1
2018-10-11T10:31:33.268Z,17.1
2018-10-11T10:32:23.547Z,17.1
2018-10-11T10:33:13.989Z,17.1
2018-10-11T10:34:05.112Z,17.1
2018-10-11T10:34:54.483Z,17.1
2018-10-11T10:35:44.145Z,17.1
2018-10-11T10:36:33.896Z,17.1
2018-10-11T10:37:24.528Z,17.1
2018-10-11T10:38:13.416Z,17.1
2018-10-11T10:39:04.254Z,17.1
2018-10-11T10:39:55.321Z,17.1
2018-10-11T10:40:43.330Z,17.1
2018-10-11T10:41:33.635Z,17.1
2018-10-11T10:42:24.294Z,17.1
2018-10-11T10:43:13.605Z,17.1
2018-10-11T10:44:04.139Z,17.1
2018-10-11T10:44:55.321Z,17.1
2018-10-11T10:45:44.619Z,17.1
2018-10-11T10:46:34.809Z,17.1
2018-10-11T10:47:24.627Z,17.1
2018-10-11T10:48:15.270Z,17.1
2018-10-11T10:49:05.013Z,17.1
2018-10-11T10:49:55.360Z,17.1
2018-10-11T10:50:45.069Z,17.1
2018-10-11T10:51:33.442Z,17.1
2018-10-11T10:52:24.742Z,17.1
2018-10-11T10:53:14.777Z,17.1
2018-10-11T10:54:05.280Z,17.1
2018-10-11T10:54:54.937Z,17.1
2018-10-11T10:55:45.739Z,17.1
2018-10-11T10:56:36.127Z,17.1
2018-10-11T10:57:25.092Z,17.1
2018-10-11T10:58:16.019Z,17.1
2018-10-11T10:59:05.493Z,17.1
2018-10-11T10:59:56.111Z,17.1
2018-10-11T11:00:45.367Z,17.1
2018-10-11T11:01:36.231Z,17.1
2018-10-11T11:02:26.251Z,17.1
2018-10-11T11:03:16.094Z,17.1
2018-10-11T11:04:05.672Z,17.1
2018-10-11T11:04:56.158Z,17.1
2018-10-11T11:05:47.476Z,17.1
2018-10-11T11:06:36.811Z,17.1
2018-10-11T11:07:26.373Z,17.1
2018-10-11T11:08:16.192Z,17.1
2018-10-11T11:09:06.832Z,17.1
2018-10-11T11:09:56.331Z,17.1
2018-10-11T11:10:47.464Z,17.1
2018-10-11T11:11:36.780Z,17.1
2018-10-11T11:12:26.669Z,17.1
2018-10-11T11:13:18.622Z,17.1
2018-10-11T11:14:06.760Z,17.1
2018-10-11T11:14:56.942Z,17.2
2018-10-11T11:15:46.919Z,17.1
2018-10-11T11:16:37.094Z,17.1
2018-10-11T11:17:26.858Z,17.2
2018-10-11T11:18:16.173Z,17.2
2018-10-11T11:19:07.188Z,17.2
2018-10-11T11:19:57.028Z,17.1
2018-10-11T11:20:47.191Z,17.2
2018-10-11T11:21:36.371Z,17.2
2018-10-11T11:22:28.008Z,17.2
2018-10-11T11:23:16.475Z,17.2
2018-10-11T11:24:07.693Z,17.2
2018-10-11T11:24:56.885Z,17.2
2018-10-11T11:25:46.208Z,17.2
2018-10-11T11:26:37.132Z,17.2
2018-10-11T11:27:27.038Z,17.2
2018-10-11T11:28:17.708Z,17.2
2018-10-11T11:29:09.025Z,17.2
2018-10-11T11:29:58.150Z,17.2
2018-10-11T11:30:47.575Z,17.2
2018-10-11T11:31:37.470Z,17.2
2018-10-11T11:32:27.833Z,17.2
2018-10-11T11:33:17.017Z,17.2
2018-10-11T11:34:07.658Z,17.2
2018-10-11T11:34:58.520Z,17.2
2018-10-11T11:35:48.712Z,17.2
2018-10-11T11:36:37.999Z,17.2
2018-10-11T11:37:27.813Z,17.2
2018-10-11T11:38:18.436Z,17.2
2018-10-11T11:39:08.185Z,17.2
2018-10-11T11:39:58.906Z,17.2
2018-10-11T11:40:48.025Z,17.2
2018-10-11T11:41:38.425Z,17.2
2018-10-11T11:42:26.863Z,17.2
2018-10-11T11:43:18.027Z,17.2
2018-10-11T11:44:08.406Z,17.2
2018-10-11T11:44:58.733Z,17.2
2018-10-11T11:45:49.615Z,17.2
2018-10-11T11:46:38.336Z,17.2
2018-10-11T11:47:28.357Z,17.2
2018-10-11T11:48:18.430Z,17.2
2018-10-11T11:49:08.240Z,17.2
2018-10-11T11:49:58.885Z,17.3
2018-10-11T11:50:49.629Z,17.2
2018-10-11T11:51:38.971Z,17.2
2018-10-11T11:52:29.061Z,17.2
2018-10-11T11:53:21.135Z,17.2
2018-10-11T11:54:08.333Z,17.3
2018-10-11T11:55:00.007Z,17.3
2018-10-11T11:55:50.851Z,17.3
2018-10-11T11:56:38.654Z,17.2
2018-10-11T11:57:30.199Z,17.2
2018-10-11T11:58:20.231Z,17.3
2018-10-11T11:59:09.624Z,17.3
2018-10-11T12:00:00.066Z,17.3
2018-10-11T12:00:50.661Z,17.3
2018-10-11T12:01:40.471Z,17.3
2018-10-11T12:02:30.473Z,17.3
2018-10-11T12:03:20.331Z,17.3
2018-10-11T12:04:10.431Z,17.3
2018-10-11T12:05:00.692Z,17.3
2018-10-11T12:05:50.491Z,17.3
2018-10-11T12:06:41.886Z,17.3
2018-10-11T12:07:31.096Z,17.3
2018-10-11T12:08:20.603Z,17.3
2018-10-11T12:09:10.762Z,17.3
2018-10-11T12:10:00.738Z,17.3
2018-10-11T12:10:51.836Z,17.3
2018-10-11T12:11:41.663Z,17.3
2018-10-11T12:12:31.463Z,17.3
2018-10-11T12:13:21.796Z,17.3
2018-10-11T12:14:11.361Z,17.3
2018-10-11T12:15:01.111Z,17.3
2018-10-11T12:15:51.155Z,17.3
2018-10-11T12:16:43.460Z,17.3
2018-10-11T12:17:31.023Z,17.3
2018-10-11T12:18:21.303Z,17.3
2018-10-11T12:19:11.713Z,17.3
2018-10-11T12:20:02.071Z,17.3
2018-10-11T12:20:52.168Z,17.3
2018-10-11T12:21:42.415Z,17.3
2018-10-11T12:22:32.493Z,17.3
2018-10-11T12:23:22.307Z,17.3
2018-10-11T12:24:11.495Z,17.3
2018-10-11T12:25:04.772Z,17.3
2018-10-11T12:25:52.494Z,17.3
2018-10-11T12:26:41.865Z,17.3
2018-10-11T12:27:33.715Z,17.3
2018-10-11T12:28:23.622Z,17.3
2018-10-11T12:29:13.526Z,17.3
2018-10-11T12:30:02.522Z,17.3
2018-10-11T12:30:53.737Z,17.3
2018-10-11T12:31:42.082Z,17.3
2018-10-11T12:32:32.675Z,17.3
2018-10-11T12:33:22.759Z,17.3
2018-10-11T12:34:13.088Z,17.3
2018-10-11T12:35:02.597Z,17.3
2018-10-11T12:35:52.642Z,17.3
2018-10-11T12:36:44.477Z,17.3
2018-10-11T12:37:33.216Z,17.3
2018-10-11T12:38:23.139Z,17.3
2018-10-11T12:39:14.252Z,17.3
2018-10-11T12:40:03.247Z,17.3
2018-10-11T12:40:53.389Z,17.3
2018-10-11T12:41:43.186Z,17.3
2018-10-11T12:42:35.489Z,17.3
2018-10-11T12:43:24.284Z,17.3
2018-10-11T12:44:15.236Z,17.3
2018-10-11T12:45:04.153Z,17.3
2018-10-11T12:45:53.469Z,17.3
2018-10-11T12:46:49.861Z,17.3
2018-10-11T12:47:34.281Z,17.3